Dobrodošli na spletni strani vremenske postaje Senovo. Vse informacije so informativnega značaja, saj vremenska postaja ni del državne mreže meteoroloških postaj. AKTUALNIH OBVESTIL NI.


Posebna pozornost v zvezi z vremenskimi dogajanji ni potrebna.    Posebna pozornost v zvezi z vremenskimi dogajanji ni potrebna.

Pogled proti Armezu več informacij Pogled proti Armezu


Lisca več informacij Lisca


Radar strel več informacij blitzortung!


Radar padavin več informacij rain snow radar


Obiščite še:

Template documentation
and downloads

And another site



Weather Underground, zgodovina - Tekstovno

Dnevni povzetek za Januar 4, 2018 Enote:  Angleško    Metrično   Obe
« Predhodni Dan
Naslednji Dan »
Dnevni Tedenski Mesečni Letni Po meri
  Višja: Nižja: Povprečje:
Temperatura: TemperatureC °F -1.7 °F 1.2 °F
Točka rosišča: DewpointC °F -2.6 °F 0.5 °F
Vlažnost: Humidity % 90 % 95 %
Hitrost vetra: WindSpeedKMH mph 0.0 mph 0.3 mph
Sunki vetra: WindSpeedGustKMH mph - -
Veter:- - South
Zračni tlak: PressurehPa in 1001.9 in -
Padavine: 0.3 in    
Historical Graphs
 
 
Tabelarni podarki za Januar 4, 2018
Čas Temperatura Točka rosišča Zračni tlak Veter Hitrost vetra Sunki vetra Vlažnost Intenziteta padavin (urna)
TemperatureC °F DewpointC °F PressurehPa in Calm     Humidity % HourlyPrecipMM in
00:00 -0.3 °F -1.7 °F 1005.0 in Calm     90 % 0.0 in
00:05 -0.4 °F -1.8 °F 1005.0 in Calm     90 % 0.0 in
00:09 -0.4 °F -1.8 °F 1005.0 in Calm     90 % 0.0 in
00:14 -0.4 °F -1.8 °F 1005.0 in Calm     90 % 0.0 in
00:15 -0.4 °F -1.8 °F 1005.0 in Calm     90 % 0.0 in
00:20 -0.3 °F -1.6 °F 1005.0 in Calm     91 % 0.0 in
00:22 -0.3 °F -1.6 °F 1005.0 in Calm     91 % 0.0 in
00:27 -0.3 °F -1.6 °F 1005.0 in Calm     91 % 0.0 in
00:32 -0.3 °F -1.6 °F 1005.0 in Calm     91 % 0.0 in
00:34 -0.3 °F -1.6 °F 1005.0 in Calm     91 % 0.0 in
00:39 -0.3 °F -1.6 °F 1005.0 in Calm     91 % 0.0 in
00:40 -0.3 °F -1.6 °F 1005.0 in Calm     91 % 0.0 in
00:45 -0.3 °F -1.6 °F 1005.0 in Calm     91 % 0.0 in
00:51 -0.3 °F -1.6 °F 1005.0 in Calm     91 % 0.0 in
00:54 -0.3 °F -1.6 °F 1005.0 in Calm     91 % 0.0 in
00:59 -0.2 °F -1.3 °F 1005.0 in Calm     92 % 0.0 in
01:00 -0.2 °F -1.3 °F 1005.0 in Calm     92 % 0.0 in
01:03 -0.2 °F -1.3 °F 1005.0 in Calm     92 % 0.0 in
01:06 -0.2 °F -1.3 °F 1005.0 in Calm     92 % 0.0 in
01:11 -0.1 °F -1.2 °F 1005.0 in Calm     92 % 0.0 in
01:19 -0.1 °F -1.2 °F 1006.0 in Calm     92 % 0.0 in
01:24 -0.1 °F -1.2 °F 1006.0 in Calm     92 % 0.0 in
01:29 -0.1 °F -1.2 °F 1005.0 in Calm     92 % 0.0 in
01:30 0.0 °F -1.2 °F 1005.0 in Calm     92 % 0.0 in
01:32 0.0 °F -1.2 °F 1005.0 in Calm     92 % 0.0 in
01:35 0.0 °F -1.2 °F 1005.0 in NW 0.2 mph 3.2 mph 92 % 0.0 in
01:40 0.0 °F -1.2 °F 1005.0 in NW 0.3 mph 3.2 mph 92 % 0.0 in
01:43 0.0 °F -1.0 °F 1006.0 in NW 0.3 mph 3.2 mph 93 % 0.0 in
01:45 0.0 °F -1.0 °F 1006.0 in NW 0.3 mph 3.2 mph 93 % 0.0 in
01:48 0.0 °F -1.0 °F 1006.0 in Calm   4.0 mph 93 % 0.0 in
01:53 0.0 °F -1.0 °F 1006.0 in NW 0.3 mph 4.0 mph 93 % 0.0 in
01:56 0.0 °F -1.0 °F 1006.0 in NW 0.3 mph 4.0 mph 93 % 0.0 in
02:01 0.1 °F -0.9 °F 1006.0 in Calm     93 % 0.0 in
02:02 0.1 °F -0.9 °F 1006.0 in Calm     93 % 0.0 in
02:07 0.0 °F -1.0 °F 1006.0 in Calm     93 % 0.0 in
02:08 0.0 °F -1.0 °F 1006.0 in Calm     93 % 0.0 in
02:13 0.0 °F -1.0 °F 1006.0 in Calm     93 % 0.0 in
02:19 -0.1 °F -1.1 °F 1006.0 in Calm     93 % 0.0 in
02:20 -0.1 °F -1.1 °F 1006.0 in Calm     93 % 0.0 in
02:25 -0.2 °F -1.2 °F 1006.0 in Calm     93 % 0.0 in
02:30 -0.2 °F -1.2 °F 1005.0 in Calm     93 % 0.0 in
02:34 -0.3 °F -1.3 °F 1005.0 in Calm     93 % 0.0 in
02:35 -0.3 °F -1.3 °F 1005.0 in Calm     93 % 0.0 in
02:39 -0.3 °F -1.3 °F 1005.0 in Calm     93 % 0.0 in
02:41 -0.3 °F -1.3 °F 1005.0 in Calm     93 % 0.0 in
02:45 -0.4 °F -1.4 °F 1005.0 in Calm     93 % 0.0 in
02:50 -0.5 °F -1.5 °F 1005.0 in Calm     93 % 0.0 in
02:51 -0.5 °F -1.5 °F 1005.0 in Calm     93 % 0.0 in
02:56 -0.5 °F -1.5 °F 1005.0 in Calm     93 % 0.0 in
03:01 -0.5 °F -1.5 °F 1005.0 in Calm     93 % 0.0 in
03:02 -0.5 °F -1.5 °F 1005.0 in Calm     93 % 0.0 in
03:07 -0.5 °F -1.5 °F 1005.0 in Calm     93 % 0.0 in
03:10 -0.6 °F -1.6 °F 1005.0 in Calm     93 % 0.0 in
03:12 -0.6 °F -1.6 °F 1005.0 in Calm     93 % 0.0 in
03:17 -0.7 °F -1.7 °F 1005.0 in Calm     93 % 0.0 in
03:20 -0.8 °F -1.8 °F 1005.0 in Calm     93 % 0.0 in
03:30 -0.8 °F -1.8 °F 1005.0 in Calm   2.1 mph 93 % 0.0 in
03:35 -0.9 °F -1.9 °F 1005.0 in Calm     93 % 0.0 in
03:40 -1.0 °F -1.8 °F 1005.0 in Calm     94 % 0.0 in
03:42 -1.0 °F -1.8 °F 1005.0 in Calm     94 % 0.0 in
03:47 -1.0 °F -1.8 °F 1005.0 in Calm     94 % 0.0 in
03:48 -1.0 °F -1.8 °F 1005.0 in Calm     94 % 0.0 in
03:53 -1.0 °F -1.8 °F 1005.0 in Calm     94 % 0.0 in
03:54 -1.0 °F -1.8 °F 1005.0 in Calm     94 % 0.0 in
03:59 -1.1 °F -1.9 °F 1005.0 in Calm     94 % 0.0 in
04:02 -1.1 °F -1.9 °F 1005.0 in Calm     94 % 0.0 in
04:07 -1.1 °F -1.9 °F 1005.0 in Calm     94 % 0.0 in
04:12 -1.2 °F -2.1 °F 1005.0 in Calm     94 % 0.0 in
04:17 -1.2 °F -2.1 °F 1005.0 in Calm     94 % 0.0 in
04:18 -1.2 °F -2.1 °F 1005.0 in Calm     94 % 0.0 in
04:23 -1.2 °F -2.1 °F 1005.0 in Calm     94 % 0.0 in
04:25 -1.2 °F -2.1 °F 1005.0 in Calm     94 % 0.0 in
04:30 -1.3 °F -2.2 °F 1003.9 in Calm     94 % 0.0 in
04:31 -1.3 °F -2.2 °F 1003.9 in Calm     94 % 0.0 in
04:32 -1.3 °F -2.2 °F 1003.9 in Calm     94 % 0.0 in
04:36 -1.3 °F -2.2 °F 1003.9 in Calm     94 % 0.0 in
04:37 -1.3 °F -2.2 °F 1003.9 in Calm     94 % 0.0 in
04:42 -1.4 °F -2.2 °F 1005.0 in Calm     94 % 0.0 in
04:44 -1.4 °F -2.2 °F 1005.0 in Calm     94 % 0.0 in
04:49 -1.4 °F -2.2 °F 1005.0 in Calm     94 % 0.0 in
04:51 -1.4 °F -2.2 °F 1005.0 in Calm     94 % 0.0 in
04:52 -1.4 °F -2.2 °F 1005.0 in Calm     94 % 0.0 in
04:57 -1.4 °F -2.2 °F 1003.9 in Calm     94 % 0.0 in
05:01 -1.4 °F -2.2 °F 1003.9 in Calm     94 % 0.0 in
05:07 -1.5 °F -2.3 °F 1003.9 in Calm     94 % 0.0 in
05:10 -1.5 °F -2.3 °F 1003.9 in Calm     94 % 0.0 in
05:14 -1.5 °F -2.3 °F 1003.9 in Calm     94 % 0.0 in
05:15 -1.5 °F -2.3 °F 1003.9 in Calm     94 % 0.0 in
05:16 -1.5 °F -2.3 °F 1003.9 in Calm     94 % 0.0 in
05:17 -1.5 °F -2.3 °F 1003.9 in Calm     94 % 0.0 in
05:18 -1.5 °F -2.3 °F 1003.9 in Calm     94 % 0.0 in
05:20 -1.5 °F -2.3 °F 1003.9 in Calm     94 % 0.0 in
05:22 -1.5 °F -2.3 °F 1003.9 in Calm     94 % 0.0 in
05:28 -1.5 °F -2.3 °F 1003.9 in Calm     94 % 0.0 in
05:32 -1.6 °F -2.4 °F 1003.9 in Calm     94 % 0.0 in
05:37 -1.6 °F -2.4 °F 1003.9 in Calm     94 % 0.0 in
05:39 -1.6 °F -2.4 °F 1003.9 in Calm     94 % 0.0 in
05:42 -1.6 °F -2.4 °F 1003.9 in Calm     94 % 0.0 in
05:44 -1.6 °F -2.4 °F 1005.0 in Calm     94 % 0.0 in
05:47 -1.6 °F -2.4 °F 1005.0 in Calm     94 % 0.0 in
05:52 -1.6 °F -2.4 °F 1005.0 in Calm     94 % 0.0 in
05:53 -1.6 °F -2.4 °F 1005.0 in Calm     94 % 0.0 in
05:54 -1.6 °F -2.4 °F 1005.0 in Calm     94 % 0.0 in
05:59 -1.6 °F -2.4 °F 1005.0 in SSW 0.5 mph 5.8 mph 94 % 0.0 in
06:04 -1.6 °F -2.4 °F 1005.0 in SW 1.6 mph 7.6 mph 94 % 0.0 in
06:06 -1.6 °F -2.4 °F 1005.0 in SW 1.3 mph 7.6 mph 94 % 0.0 in
06:11 -1.6 °F -2.4 °F 1005.0 in WSW 1.4 mph 4.3 mph 94 % 0.0 in
06:13 -1.6 °F -2.4 °F 1005.0 in WSW 1.3 mph 4.3 mph 94 % 0.0 in
06:16 -1.6 °F -2.4 °F 1005.0 in WSW 1.3 mph 4.3 mph 94 % 0.0 in
06:19 -1.6 °F -2.4 °F 1005.0 in WSW 1.1 mph 3.5 mph 94 % 0.0 in
06:20 -1.6 °F -2.4 °F 1005.0 in WSW 0.8 mph 2.6 mph 94 % 0.0 in
06:25 -1.6 °F -2.4 °F 1005.0 in SSW 0.5 mph 4.7 mph 94 % 0.0 in
06:27 -1.6 °F -2.4 °F 1006.0 in SSW 0.3 mph 4.7 mph 94 % 0.0 in
06:29 -1.6 °F -2.4 °F 1006.0 in SSW 0.5 mph 4.7 mph 94 % 0.0 in
06:31 -1.6 °F -2.4 °F 1006.0 in SSW 0.5 mph 4.3 mph 94 % 0.0 in
06:37 -1.6 °F -2.4 °F 1006.0 in SSW 0.3 mph 3.2 mph 94 % 0.0 in
06:40 -1.6 °F -2.4 °F 1006.0 in SSW 0.3 mph 3.2 mph 94 % 0.0 in
06:42 -1.6 °F -2.4 °F 1006.0 in SSW 0.3 mph 3.2 mph 94 % 0.0 in
06:47 -1.6 °F -2.4 °F 1006.0 in SSW 0.2 mph 2.6 mph 94 % 0.0 in
06:50 -1.6 °F -2.4 °F 1006.0 in SSW 0.2 mph 2.6 mph 94 % 0.0 in
06:53 -1.6 °F -2.4 °F 1006.0 in Calm   2.1 mph 94 % 0.0 in
06:58 -1.7 °F -2.6 °F 1007.0 in Calm     94 % 0.0 in
06:59 -1.7 °F -2.6 °F 1007.0 in Calm     94 % 0.0 in
07:01 -1.7 °F -2.6 °F 1007.0 in Calm     94 % 0.0 in
07:06 -1.6 °F -2.4 °F 1007.0 in Calm     94 % 0.0 in
07:11 -1.7 °F -2.6 °F 1007.0 in Calm     94 % 0.0 in
07:12 -1.7 °F -2.6 °F 1007.0 in Calm     94 % 0.0 in
07:17 -1.7 °F -2.6 °F 1007.0 in Calm     94 % 0.0 in
07:23 -1.7 °F -2.4 °F 1007.0 in Calm     95 % 0.0 in
07:27 -1.7 °F -2.4 °F 1007.0 in Calm     95 % 0.0 in
07:32 -1.7 °F -2.4 °F 1007.0 in Calm     95 % 0.0 in
07:33 -1.7 °F -2.4 °F 1007.0 in Calm     95 % 0.0 in
07:34 -1.6 °F -2.3 °F 1007.0 in Calm     95 % 0.0 in
07:39 -1.6 °F -2.3 °F 1007.0 in Calm     95 % 0.0 in
07:43 -1.6 °F -2.3 °F 1007.0 in SW 0.2 mph 3.5 mph 95 % 0.0 in
07:44 -1.6 °F -2.3 °F 1007.0 in SW 0.8 mph 4.7 mph 95 % 0.0 in
07:45 -1.6 °F -2.3 °F 1007.0 in SW 1.1 mph 4.7 mph 95 % 0.0 in
07:46 -1.6 °F -2.3 °F 1007.0 in SW 1.3 mph 4.7 mph 95 % 0.0 in
07:47 -1.5 °F -2.2 °F 1007.0 in SW 1.4 mph 4.7 mph 95 % 0.0 in
07:51 -1.5 °F -2.2 °F 1007.0 in SW 1.4 mph 4.7 mph 95 % 0.0 in
07:56 -1.5 °F -2.2 °F 1007.0 in North 0.2 mph   95 % 0.0 in
07:57 -1.5 °F -2.2 °F 1007.0 in Calm     95 % 0.0 in
08:02 -1.5 °F -2.2 °F 1007.0 in Calm     95 % 0.0 in
08:03 -1.5 °F -2.2 °F 1007.0 in Calm     95 % 0.0 in
08:09 -1.5 °F -2.2 °F 1007.0 in Calm     95 % 0.0 in
08:13 -1.5 °F -2.2 °F 1007.0 in Calm     95 % 0.0 in
08:17 -1.4 °F -2.1 °F 1007.0 in Calm     95 % 0.0 in
08:18 -1.4 °F -2.1 °F 1007.0 in Calm     95 % 0.0 in
08:23 -1.4 °F -2.1 °F 1007.0 in Calm     95 % 0.0 in
08:24 -1.4 °F -2.1 °F 1007.0 in Calm     95 % 0.0 in
08:29 -1.4 °F -2.1 °F 1007.0 in Calm     95 % 0.0 in
08:31 -1.4 °F -2.1 °F 1007.0 in Calm     95 % 0.0 in
08:35 -1.3 °F -2.0 °F 1007.0 in Calm     95 % 0.0 in
08:36 -1.3 °F -2.0 °F 1007.0 in Calm     95 % 0.0 in
08:37 -1.3 °F -2.0 °F 1007.0 in Calm     95 % 0.0 in
08:39 -1.3 °F -2.0 °F 1007.0 in Calm     95 % 0.0 in
08:42 -1.3 °F -2.0 °F 1007.0 in Calm     95 % 0.0 in
08:47 -1.2 °F -1.9 °F 1007.0 in Calm     95 % 0.0 in
08:48 -1.2 °F -1.9 °F 1007.0 in Calm     95 % 0.0 in
08:49 -1.2 °F -1.9 °F 1007.0 in Calm     95 % 0.0 in
08:54 -1.1 °F -1.8 °F 1007.0 in Calm     95 % 0.0 in
08:55 -1.1 °F -1.8 °F 1007.0 in Calm     95 % 0.0 in
09:01 -1.0 °F -1.7 °F 1007.0 in Calm     95 % 0.0 in
09:04 -1.0 °F -1.7 °F 1007.0 in Calm     95 % 0.0 in
09:05 -1.0 °F -1.7 °F 1007.0 in Calm     95 % 0.0 in
09:09 -1.0 °F -1.7 °F 1007.0 in Calm     95 % 0.0 in
09:11 -0.9 °F -1.6 °F 1007.0 in Calm     95 % 0.0 in
09:13 -0.8 °F -1.5 °F 1007.0 in Calm     95 % 0.0 in
09:14 -0.8 °F -1.5 °F 1007.0 in SSW 0.2 mph 2.6 mph 95 % 0.0 in
09:18 -0.7 °F -1.4 °F 1007.0 in SSW 0.3 mph 2.6 mph 95 % 0.0 in
09:20 -0.7 °F -1.4 °F 1007.0 in SSW 0.3 mph 2.6 mph 95 % 0.0 in
09:25 -0.5 °F -1.2 °F 1007.0 in Calm     95 % 0.0 in
09:26 -0.5 °F -1.2 °F 1007.0 in Calm     95 % 0.0 in
09:27 -0.5 °F -1.2 °F 1007.0 in Calm     95 % 0.0 in
09:28 -0.5 °F -1.2 °F 1007.0 in Calm     95 % 0.0 in
09:31 -0.5 °F -1.2 °F 1007.0 in Calm     95 % 0.0 in
09:36 -0.5 °F -1.2 °F 1007.0 in Calm     95 % 0.0 in
09:40 -0.4 °F -1.1 °F 1007.0 in Calm     95 % 0.0 in
09:45 -0.3 °F -0.8 °F 1007.0 in Calm     96 % 0.0 in
09:48 -0.3 °F -0.8 °F 1007.0 in Calm     96 % 0.0 in
09:53 -0.1 °F -0.7 °F 1007.0 in Calm     96 % 0.0 in
09:58 0.0 °F -0.6 °F 1007.0 in Calm     96 % 0.0 in
09:59 0.0 °F -0.6 °F 1007.0 in Calm     96 % 0.0 in
10:03 0.1 °F -0.4 °F 1007.0 in Calm     96 % 0.0 in
10:05 0.1 °F -0.4 °F 1007.0 in Calm     96 % 0.0 in
10:09 0.2 °F -0.4 °F 1007.0 in Calm     96 % 0.0 in
10:11 0.2 °F -0.4 °F 1007.0 in Calm     96 % 0.0 in
10:16 0.3 °F -0.3 °F 1007.0 in Calm     96 % 0.0 in
10:21 0.5 °F -0.1 °F 1007.0 in SW 0.3 mph 4.3 mph 96 % 0.0 in
10:26 0.7 °F 0.1 °F 1007.0 in SSW 2.3 mph 6.1 mph 96 % 0.0 in
10:27 0.7 °F 0.1 °F 1007.0 in SSW 2.6 mph 6.4 mph 96 % 0.0 in
10:32 0.8 °F 0.2 °F 1007.0 in SSW 3.5 mph 6.4 mph 96 % 0.0 in
10:35 0.9 °F 0.3 °F 1007.0 in SSW 2.4 mph 6.4 mph 96 % 0.0 in
10:40 1.0 °F 0.4 °F 1007.0 in SSE 0.3 mph 3.5 mph 96 % 0.0 in
10:44 1.1 °F 0.6 °F 1007.0 in South 0.3 mph 4.0 mph 96 % 0.0 in
10:50 1.2 °F 0.6 °F 1007.0 in SSW 0.5 mph 4.0 mph 96 % 0.0 in
10:52 1.2 °F 0.6 °F 1007.0 in SSW 0.5 mph 4.0 mph 96 % 0.0 in
10:56 1.3 °F 0.7 °F 1007.0 in Calm     96 % 0.0 in
10:59 1.4 °F 0.8 °F 1007.0 in Calm     96 % 0.0 in
11:02 1.5 °F 0.9 °F 1007.0 in Calm     96 % 0.0 in
11:05 1.5 °F 1.1 °F 1007.0 in Calm     97 % 0.0 in
11:09 1.6 °F 1.2 °F 1007.0 in Calm     97 % 0.0 in
11:10 1.6 °F 1.2 °F 1007.0 in Calm     97 % 0.0 in
11:15 1.7 °F 1.3 °F 1007.0 in Calm     97 % 0.0 in
11:16 1.7 °F 1.3 °F 1007.0 in Calm     97 % 0.0 in
11:21 1.8 °F 1.4 °F 1007.0 in Calm     97 % 0.0 in
11:27 1.9 °F 1.5 °F 1007.0 in Calm     97 % 0.0 in
11:28 1.9 °F 1.5 °F 1007.0 in Calm     97 % 0.0 in
11:33 2.0 °F 1.4 °F 1007.0 in Calm     96 % 0.3 in
11:37 2.0 °F 1.4 °F 1007.0 in Calm     96 % 0.3 in
11:41 2.1 °F 1.6 °F 1007.0 in Calm     96 % 0.3 in
11:44 2.1 °F 1.6 °F 1008.0 in Calm     96 % 0.3 in
11:47 2.2 °F 1.8 °F 1008.0 in Calm     97 % 0.3 in
11:52 2.3 °F 1.9 °F 1008.0 in Calm     97 % 0.3 in
11:54 2.4 °F 2.0 °F 1008.0 in Calm     97 % 0.3 in
11:59 2.5 °F 2.1 °F 1007.0 in Calm   3.2 mph 97 % 0.3 in
12:04 2.6 °F 2.2 °F 1007.0 in SSW 1.6 mph 5.5 mph 97 % 0.3 in
12:07 2.7 °F 2.3 °F 1007.0 in SSW 2.4 mph 5.5 mph 97 % 0.3 in
12:11 2.8 °F 2.4 °F 1007.0 in SSW 3.1 mph 5.0 mph 97 % 0.3 in
12:14 2.8 °F 2.4 °F 1006.0 in South 3.2 mph 6.9 mph 97 % 0.3 in
12:19 2.9 °F 2.4 °F 1006.0 in SSE 3.7 mph 6.9 mph 97 % 0.3 in
12:20 2.9 °F 2.4 °F 1006.0 in SSE 3.7 mph 6.9 mph 97 % 0.3 in
12:25 3.0 °F 2.6 °F 1006.0 in SSE 4.2 mph 6.4 mph 97 % 0.3 in
12:26 3.0 °F 2.6 °F 1006.0 in SE 4.0 mph 6.1 mph 97 % 0.3 in
12:29 3.1 °F 2.7 °F 1006.0 in SE 3.7 mph 6.1 mph 97 % 0.0 in
12:34 3.3 °F 2.9 °F 1006.0 in SE 3.2 mph 5.8 mph 97 % 0.0 in
12:36 3.3 °F 2.9 °F 1006.0 in SE 3.2 mph 5.8 mph 97 % 0.0 in
12:41 3.4 °F 2.9 °F 1006.0 in SSE 3.2 mph 5.8 mph 97 % 0.0 in
12:43 3.5 °F 3.1 °F 1006.0 in SSE 3.2 mph 5.8 mph 97 % 0.0 in
12:48 3.6 °F 3.2 °F 1006.0 in SSE 1.9 mph 5.0 mph 97 % 0.0 in
12:49 3.6 °F 3.2 °F 1006.0 in SSE 1.4 mph 4.3 mph 97 % 0.0 in
12:54 3.7 °F 3.3 °F 1006.0 in SE 1.0 mph 4.3 mph 97 % 0.0 in
12:57 3.7 °F 3.3 °F 1005.0 in SE 1.3 mph 4.3 mph 97 % 0.0 in
13:02 3.7 °F 3.3 °F 1005.0 in SE 1.4 mph 4.3 mph 97 % 0.0 in
13:05 3.8 °F 3.4 °F 1005.0 in SE 1.9 mph 5.0 mph 97 % 0.0 in
13:10 3.8 °F 3.4 °F 1005.0 in SE 2.6 mph 5.5 mph 97 % 0.0 in
13:11 3.8 °F 3.4 °F 1005.0 in ESE 2.4 mph 5.5 mph 97 % 0.0 in
13:16 3.9 °F 3.4 °F 1005.0 in SE 1.1 mph 5.5 mph 97 % 0.0 in
13:17 3.9 °F 3.4 °F 1005.0 in SE 1.0 mph 5.5 mph 97 % 0.0 in
13:22 4.0 °F 3.6 °F 1005.0 in SSE 0.5 mph 3.2 mph 97 % 0.0 in
13:27 4.1 °F 3.7 °F 1005.0 in SSE 1.3 mph 4.0 mph 97 % 0.0 in
13:31 4.1 °F 3.7 °F 1005.0 in SE 2.4 mph 4.7 mph 97 % 0.0 in
13:36 4.2 °F 3.8 °F 1005.0 in SE 2.6 mph 4.7 mph 97 % 0.0 in
13:37 4.2 °F 3.8 °F 1005.0 in SE 2.7 mph 4.7 mph 97 % 0.0 in
13:42 4.1 °F 3.7 °F 1005.0 in ESE 2.4 mph 4.3 mph 97 % 0.0 in
13:43 4.1 °F 3.7 °F 1003.9 in SE 2.4 mph 4.3 mph 97 % 0.0 in
13:45 4.1 °F 3.7 °F 1003.9 in SE 2.7 mph 4.3 mph 97 % 0.0 in
13:48 4.2 °F 3.8 °F 1003.9 in SE 1.8 mph 4.3 mph 97 % 0.0 in
13:50 4.2 °F 3.8 °F 1003.9 in SE 1.4 mph 4.3 mph 97 % 0.0 in
13:52 4.2 °F 3.8 °F 1003.9 in SE 1.1 mph 4.3 mph 97 % 0.0 in
13:57 4.3 °F 3.9 °F 1003.9 in Calm     97 % 0.0 in
13:58 4.3 °F 3.9 °F 1003.9 in Calm     97 % 0.0 in
13:59 4.3 °F 3.9 °F 1003.9 in Calm     97 % 0.0 in
14:09 4.3 °F 3.9 °F 1003.9 in Calm     97 % 0.0 in
14:11 4.3 °F 3.9 °F 1003.9 in Calm     97 % 0.0 in
14:16 4.4 °F 3.9 °F 1005.0 in Calm     97 % 0.0 in
14:21 4.4 °F 3.9 °F 1005.0 in Calm     97 % 0.0 in
14:25 4.4 °F 3.9 °F 1005.0 in Calm     97 % 0.0 in
14:30 4.5 °F 4.1 °F 1005.0 in Calm     97 % 0.0 in
14:32 4.5 °F 4.1 °F 1005.0 in Calm     97 % 0.0 in
14:33 4.5 °F 4.1 °F 1005.0 in Calm     97 % 0.0 in
14:38 4.6 °F 4.2 °F 1005.0 in Calm     97 % 0.0 in
14:43 4.6 °F 4.2 °F 1003.9 in Calm     97 % 0.0 in
14:45 4.6 °F 4.2 °F 1003.9 in Calm     97 % 0.0 in
14:50 4.7 °F 4.3 °F 1003.9 in Calm     97 % 0.0 in
14:52 4.7 °F 4.3 °F 1003.9 in Calm     97 % 0.0 in
14:57 4.7 °F 4.3 °F 1003.9 in Calm     97 % 0.0 in
14:59 4.7 °F 4.3 °F 1005.0 in Calm     97 % 0.0 in
15:05 4.7 °F 4.3 °F 1005.0 in Calm     97 % 0.0 in
15:06 4.8 °F 4.4 °F 1005.0 in Calm     97 % 0.0 in
15:11 4.8 °F 4.4 °F 1005.0 in Calm     97 % 0.0 in
15:12 4.8 °F 4.4 °F 1005.0 in Calm     97 % 0.0 in
15:18 4.8 °F 4.4 °F 1005.0 in Calm     97 % 0.0 in
15:21 4.8 °F 4.4 °F 1005.0 in Calm     97 % 0.0 in
15:24 4.8 °F 4.4 °F 1005.0 in Calm     97 % 0.0 in
15:25 4.8 °F 4.4 °F 1005.0 in Calm     97 % 0.0 in
15:30 4.8 °F 4.4 °F 1005.0 in Calm     97 % 0.0 in
15:35 4.8 °F 4.4 °F 1005.0 in Calm     97 % 0.0 in
15:40 4.8 °F 4.4 °F 1005.0 in Calm     97 % 0.0 in
15:41 4.8 °F 4.4 °F 1005.0 in Calm     97 % 0.0 in
15:46 4.8 °F 4.4 °F 1005.0 in Calm     97 % 0.0 in
15:49 4.7 °F 4.3 °F 1005.0 in Calm     97 % 0.0 in
15:50 4.7 °F 4.3 °F 1005.0 in Calm     97 % 0.0 in
15:55 4.7 °F 4.3 °F 1005.0 in Calm     97 % 0.0 in
16:00 4.7 °F 4.3 °F 1005.0 in Calm     97 % 0.0 in
16:01 4.7 °F 4.3 °F 1005.0 in Calm     97 % 0.0 in
16:03 4.7 °F 4.3 °F 1005.0 in Calm     97 % 0.0 in
16:08 4.6 °F 4.2 °F 1005.0 in Calm     97 % 0.0 in
16:13 4.6 °F 4.2 °F 1005.0 in Calm     97 % 0.0 in
16:17 4.5 °F 4.1 °F 1005.0 in Calm     97 % 0.0 in
16:22 4.5 °F 4.1 °F 1005.0 in Calm     97 % 0.0 in
16:24 4.5 °F 4.1 °F 1005.0 in Calm     97 % 0.0 in
16:29 4.4 °F 3.9 °F 1005.0 in Calm     97 % 0.0 in
16:34 4.4 °F 3.9 °F 1005.0 in Calm     97 % 0.0 in
16:39 4.3 °F 3.9 °F 1005.0 in Calm     97 % 0.0 in
16:44 4.2 °F 3.8 °F 1005.0 in Calm     97 % 0.0 in
16:45 4.2 °F 3.8 °F 1005.0 in Calm     97 % 0.0 in
16:49 4.1 °F 3.7 °F 1005.0 in Calm     97 % 0.0 in
16:52 4.1 °F 3.7 °F 1005.0 in Calm     97 % 0.0 in
16:57 4.0 °F 3.6 °F 1005.0 in SW 1.0 mph 4.0 mph 97 % 0.0 in
17:02 3.9 °F 3.4 °F 1003.9 in SW 1.1 mph 4.0 mph 97 % 0.0 in
17:04 3.9 °F 3.4 °F 1003.9 in SW 1.1 mph 4.0 mph 97 % 0.0 in
17:09 3.8 °F 3.4 °F 1003.9 in Calm   2.1 mph 97 % 0.0 in
17:12 3.8 °F 3.4 °F 1003.9 in Calm     97 % 0.0 in
17:17 3.7 °F 3.3 °F 1003.9 in Calm     97 % 0.0 in
17:20 3.7 °F 3.3 °F 1003.9 in Calm     97 % 0.0 in
17:25 3.7 °F 3.3 °F 1003.9 in Calm     97 % 0.0 in
17:27 3.6 °F 3.2 °F 1003.9 in Calm     97 % 0.0 in
17:32 3.6 °F 3.2 °F 1005.0 in Calm     97 % 0.0 in
17:37 3.6 °F 3.2 °F 1005.0 in Calm     97 % 0.0 in
17:39 3.5 °F 3.1 °F 1005.0 in Calm     97 % 0.0 in
17:41 3.5 °F 3.1 °F 1005.0 in Calm     97 % 0.0 in
17:44 3.4 °F 2.9 °F 1005.0 in Calm     97 % 0.0 in
17:45 3.4 °F 2.9 °F 1005.0 in Calm     97 % 0.0 in
17:52 3.4 °F 2.9 °F 1005.0 in Calm     97 % 0.0 in
17:53 3.4 °F 2.9 °F 1005.0 in Calm     97 % 0.0 in
17:58 3.3 °F 2.9 °F 1003.9 in SW 0.2 mph 3.2 mph 97 % 0.0 in
17:59 3.3 °F 2.9 °F 1003.9 in SW 0.2 mph 3.2 mph 97 % 0.0 in
18:00 3.3 °F 2.9 °F 1003.9 in SW 0.2 mph 3.2 mph 97 % 0.0 in
18:05 3.3 °F 2.9 °F 1003.9 in Calm     97 % 0.0 in
18:10 3.2 °F 2.8 °F 1003.9 in Calm     97 % 0.0 in
18:14 3.2 °F 2.8 °F 1003.9 in Calm     97 % 0.0 in
18:15 3.2 °F 2.8 °F 1003.9 in Calm     97 % 0.0 in
18:20 3.1 °F 2.7 °F 1003.9 in Calm     97 % 0.0 in
18:21 3.1 °F 2.7 °F 1003.9 in Calm     97 % 0.0 in
18:22 3.1 °F 2.5 °F 1003.9 in Calm     96 % 0.0 in
18:33 3.0 °F 2.4 °F 1003.9 in Calm     96 % 0.0 in
18:34 3.0 °F 2.4 °F 1003.9 in Calm     96 % 0.0 in
18:35 3.0 °F 2.4 °F 1003.9 in Calm     96 % 0.0 in
18:39 3.0 °F 2.4 °F 1003.9 in West 0.2 mph 3.5 mph 96 % 0.0 in
18:41 3.0 °F 2.4 °F 1003.9 in West 0.2 mph 3.5 mph 96 % 0.0 in
18:46 2.9 °F 2.4 °F 1003.9 in Calm     97 % 0.0 in
18:51 2.8 °F 2.4 °F 1003.9 in Calm     97 % 0.0 in
18:52 2.8 °F 2.4 °F 1003.9 in Calm     97 % 0.0 in
18:53 2.8 °F 2.4 °F 1003.9 in Calm     97 % 0.0 in
18:58 2.8 °F 2.4 °F 1003.9 in Calm     97 % 0.0 in
19:03 2.7 °F 2.3 °F 1003.9 in Calm     97 % 0.0 in
19:08 2.7 °F 2.3 °F 1003.9 in Calm     97 % 0.0 in
19:14 2.5 °F 2.1 °F 1003.9 in Calm     97 % 0.0 in
19:16 2.5 °F 2.1 °F 1003.9 in Calm     97 % 0.0 in
19:21 2.4 °F 2.0 °F 1003.9 in Calm     97 % 0.0 in
19:23 2.3 °F 1.9 °F 1003.9 in Calm     97 % 0.0 in
19:28 2.3 °F 1.9 °F 1003.9 in Calm     97 % 0.0 in
19:32 2.2 °F 1.6 °F 1003.9 in Calm   2.6 mph 96 % 0.0 in
19:37 2.1 °F 1.6 °F 1003.9 in Calm   2.6 mph 96 % 0.0 in
19:39 2.1 °F 1.6 °F 1003.9 in Calm   2.6 mph 96 % 0.0 in
19:44 2.0 °F 1.4 °F 1003.9 in Calm     96 % 0.0 in
19:45 2.0 °F 1.4 °F 1003.9 in Calm     96 % 0.0 in
19:50 1.9 °F 1.5 °F 1003.9 in Calm     97 % 0.0 in
19:51 1.9 °F 1.5 °F 1003.9 in Calm     97 % 0.0 in
19:52 1.9 °F 1.5 °F 1003.9 in Calm     97 % 0.0 in
19:57 1.9 °F 1.5 °F 1003.9 in WNW 0.2 mph 3.2 mph 97 % 0.0 in
20:02 1.9 °F 1.5 °F 1003.9 in WNW 0.2 mph 3.2 mph 97 % 0.0 in
20:07 1.9 °F 1.5 °F 1003.9 in Calm     97 % 0.0 in
20:10 1.9 °F 1.5 °F 1003.9 in Calm     97 % 0.0 in
20:15 1.9 °F 1.5 °F 1003.9 in Calm     97 % 0.0 in
20:18 1.9 °F 1.5 °F 1003.9 in Calm     97 % 0.0 in
20:19 1.9 °F 1.5 °F 1003.9 in Calm     97 % 0.0 in
20:23 2.0 °F 1.4 °F 1003.9 in Calm     96 % 0.0 in
20:28 2.0 °F 1.4 °F 1003.9 in Calm     96 % 0.0 in
20:29 2.0 °F 1.4 °F 1003.9 in Calm     96 % 0.0 in
20:33 2.0 °F 1.4 °F 1003.9 in Calm     96 % 0.0 in
20:34 2.0 °F 1.4 °F 1003.9 in Calm     96 % 0.0 in
20:35 2.0 °F 1.6 °F 1003.9 in Calm     97 % 0.0 in
20:40 2.0 °F 1.6 °F 1003.9 in Calm     97 % 0.0 in
20:41 2.0 °F 1.6 °F 1003.9 in Calm     97 % 0.0 in
20:47 2.0 °F 1.6 °F 1003.9 in Calm     97 % 0.0 in
20:49 2.0 °F 1.6 °F 1003.9 in Calm     97 % 0.0 in
20:54 2.1 °F 1.7 °F 1003.9 in Calm     97 % 0.0 in
20:59 2.1 °F 1.7 °F 1002.9 in Calm     97 % 0.0 in
21:01 2.1 °F 1.7 °F 1002.9 in Calm     97 % 0.0 in
21:06 2.1 °F 1.7 °F 1002.9 in Calm     97 % 0.0 in
21:11 2.1 °F 1.7 °F 1002.9 in Calm     97 % 0.0 in
21:14 2.1 °F 1.7 °F 1002.9 in Calm     97 % 0.0 in
21:16 2.1 °F 1.7 °F 1002.9 in Calm     97 % 0.0 in
21:17 2.1 °F 1.7 °F 1002.9 in Calm     97 % 0.0 in
21:19 2.1 °F 1.7 °F 1002.9 in Calm     97 % 0.0 in
21:26 2.0 °F 1.6 °F 1002.9 in Calm     97 % 0.0 in
21:27 2.0 °F 1.6 °F 1002.9 in Calm     97 % 0.0 in
21:32 1.9 °F 1.5 °F 1002.9 in Calm     97 % 0.0 in
21:34 1.9 °F 1.5 °F 1002.9 in Calm     97 % 0.0 in
21:38 1.9 °F 1.5 °F 1002.9 in Calm     97 % 0.0 in
21:43 1.7 °F 1.3 °F 1002.9 in Calm     97 % 0.0 in
21:47 1.7 °F 1.3 °F 1002.9 in Calm     97 % 0.0 in
21:52 1.6 °F 1.2 °F 1002.9 in Calm     97 % 0.0 in
21:53 1.6 °F 1.2 °F 1002.9 in Calm     97 % 0.0 in
21:55 1.6 °F 1.2 °F 1002.9 in Calm     97 % 0.0 in
22:01 1.6 °F 1.2 °F 1002.9 in Calm     97 % 0.0 in
22:08 1.4 °F 1.0 °F 1002.9 in Calm     97 % 0.0 in
22:14 1.4 °F 1.0 °F 1002.9 in Calm     97 % 0.0 in
22:17 1.4 °F 1.0 °F 1002.9 in Calm     97 % 0.0 in
22:19 1.4 °F 1.0 °F 1002.9 in Calm     97 % 0.0 in
22:34 1.3 °F 0.9 °F 1002.9 in North 0.2 mph 2.6 mph 97 % 0.0 in
22:38 1.3 °F 0.9 °F 1002.9 in North 0.2 mph 2.6 mph 97 % 0.0 in
22:45 1.3 °F 0.9 °F 1001.9 in Calm     97 % 0.0 in
22:46 1.3 °F 0.9 °F 1001.9 in Calm     97 % 0.0 in
22:47 1.3 °F 0.9 °F 1001.9 in Calm     97 % 0.0 in
22:48 1.3 °F 0.9 °F 1001.9 in Calm     97 % 0.0 in
22:49 1.3 °F 0.9 °F 1001.9 in Calm     97 % 0.0 in
22:50 1.3 °F 0.9 °F 1001.9 in Calm     97 % 0.0 in
22:51 1.3 °F 0.9 °F 1001.9 in Calm     97 % 0.0 in
22:55 1.3 °F 0.9 °F 1001.9 in Calm     97 % 0.0 in
22:57 1.3 °F 0.9 °F 1001.9 in Calm     97 % 0.0 in
23:02 1.3 °F 0.9 °F 1002.9 in Calm     97 % 0.0 in
23:04 1.3 °F 0.9 °F 1002.9 in Calm     97 % 0.0 in
23:05 1.4 °F 1.0 °F 1002.9 in Calm     97 % 0.0 in
23:09 1.4 °F 1.0 °F 1002.9 in Calm     97 % 0.0 in
23:15 1.4 °F 1.0 °F 1001.9 in Calm     97 % 0.0 in
23:16 1.4 °F 1.0 °F 1001.9 in Calm     97 % 0.0 in
23:23 1.5 °F 1.1 °F 1001.9 in Calm     97 % 0.0 in
23:28 1.5 °F 1.1 °F 1001.9 in Calm     97 % 0.0 in
23:31 1.5 °F 1.1 °F 1001.9 in Calm     97 % 0.0 in
23:36 1.5 °F 1.1 °F 1001.9 in Calm     97 % 0.0 in
23:38 1.5 °F 1.1 °F 1001.9 in Calm     97 % 0.0 in
23:42 1.5 °F 1.1 °F 1001.9 in Calm     97 % 0.0 in
23:45 1.5 °F 1.1 °F 1001.9 in Calm     97 % 0.0 in
23:50 1.6 °F 1.2 °F 1001.9 in Calm     97 % 0.0 in
23:51 1.6 °F 1.2 °F 1001.9 in Calm     97 % 0.0 in
23:52 1.6 °F 1.2 °F 1001.9 in Calm     97 % 0.0 in
23:57 1.6 °F 1.2 °F 1001.9 in Calm     97 % 0.0 in
Vremenska postaja Senovo
Podatki zbrani iz Weather Underground - 3.5 mb

Script developed by  Jim McMurry - jmcmurry@mwt.net Adapted for the template by  Wim van der Kuil - Leuven-Template.eu

Vremenski podatki so objavljeni na:

European Weather Network

WeatherCloud

Weather Underground

AWEKAS

HAMweather, WeatherForYou, PWS Weather

MapView

Geostik

Slovenia weather network

Oprema, ki se uporablja:

Vremenski program
Cumulus

Vremenski server
Asus

Cumulus

Asus